sensor_id;sensor_type;location;lat;lon;timestamp;temperature;humidity
48988;DHT22;34799;51.440;-2.534;2024-02-16T00:00:11;11.70;99.90
48988;DHT22;34799;51.440;-2.534;2024-02-16T00:02:40;11.80;99.90
48988;DHT22;34799;51.440;-2.534;2024-02-16T00:07:39;10.30;99.90
48988;DHT22;34799;51.440;-2.534;2024-02-16T00:10:08;12.00;99.90
48988;DHT22;34799;51.440;-2.534;2024-02-16T00:12:37;11.90;99.90
48988;DHT22;34799;51.440;-2.534;2024-02-16T00:15:06;11.80;99.90
48988;DHT22;34799;51.440;-2.534;2024-02-16T00:20:01;11.80;99.90
48988;DHT22;34799;51.440;-2.534;2024-02-16T00:22:28;12.20;99.90
48988;DHT22;34799;51.440;-2.534;2024-02-16T00:24:55;12.50;99.90
48988;DHT22;34799;51.440;-2.534;2024-02-16T00:27:23;12.10;99.90
48988;DHT22;34799;51.440;-2.534;2024-02-16T00:29:50;12.10;99.90
48988;DHT22;34799;51.440;-2.534;2024-02-16T00:34:46;12.00;99.90
48988;DHT22;34799;51.440;-2.534;2024-02-16T00:39:43;12.40;99.90
48988;DHT22;34799;51.440;-2.534;2024-02-16T00:42:10;12.20;99.90
48988;DHT22;34799;51.440;-2.534;2024-02-16T00:44:38;12.30;99.90
48988;DHT22;34799;51.440;-2.534;2024-02-16T00:47:06;11.90;99.90
48988;DHT22;34799;51.440;-2.534;2024-02-16T00:52:01;11.80;99.90
48988;DHT22;34799;51.440;-2.534;2024-02-16T00:57:00;12.00;99.90
48988;DHT22;34799;51.440;-2.534;2024-02-16T01:01:59;12.10;99.90
48988;DHT22;34799;51.440;-2.534;2024-02-16T01:04:26;12.20;99.90
48988;DHT22;34799;51.440;-2.534;2024-02-16T01:06:53;12.00;99.90
48988;DHT22;34799;51.440;-2.534;2024-02-16T01:09:20;12.20;99.90
48988;DHT22;34799;51.440;-2.534;2024-02-16T01:11:47;12.00;99.90
48988;DHT22;34799;51.440;-2.534;2024-02-16T01:14:15;11.80;99.90
48988;DHT22;34799;51.440;-2.534;2024-02-16T01:16:42;11.90;99.90
48988;DHT22;34799;51.440;-2.534;2024-02-16T01:19:10;11.90;99.90
48988;DHT22;34799;51.440;-2.534;2024-02-16T01:21:37;11.50;99.90
48988;DHT22;34799;51.440;-2.534;2024-02-16T01:24:05;11.70;99.90
48988;DHT22;34799;51.440;-2.534;2024-02-16T01:26:33;11.60;99.90
48988;DHT22;34799;51.440;-2.534;2024-02-16T01:29:01;11.50;99.90
48988;DHT22;34799;51.440;-2.534;2024-02-16T01:31:29;11.40;99.90
48988;DHT22;34799;51.440;-2.534;2024-02-16T01:33:56;11.40;99.90
48988;DHT22;34799;51.440;-2.534;2024-02-16T01:36:23;11.20;99.90
48988;DHT22;34799;51.440;-2.534;2024-02-16T01:43:46;12.00;99.90
48988;DHT22;34799;51.440;-2.534;2024-02-16T01:46:13;11.40;99.90
48988;DHT22;34799;51.440;-2.534;2024-02-16T01:48:41;11.60;99.90
48988;DHT22;34799;51.440;-2.534;2024-02-16T01:51:09;11.10;99.90
48988;DHT22;34799;51.440;-2.534;2024-02-16T01:56:05;11.50;99.90
48988;DHT22;34799;51.440;-2.534;2024-02-16T01:58:33;11.30;99.90
48988;DHT22;34799;51.440;-2.534;2024-02-16T02:01:01;11.20;99.90
48988;DHT22;34799;51.440;-2.534;2024-02-16T02:03:29;11.10;99.90
48988;DHT22;34799;51.440;-2.534;2024-02-16T02:05:57;11.20;99.90
48988;DHT22;34799;51.440;-2.534;2024-02-16T02:08:25;10.80;99.90
48988;DHT22;34799;51.440;-2.534;2024-02-16T02:10:53;11.00;99.90
48988;DHT22;34799;51.440;-2.534;2024-02-16T02:13:21;11.00;99.90
48988;DHT22;34799;51.440;-2.534;2024-02-16T02:15:51;11.10;99.90
48988;DHT22;34799;51.440;-2.534;2024-02-16T02:18:20;11.30;99.90
48988;DHT22;34799;51.440;-2.534;2024-02-16T02:20:48;10.70;99.90
48988;DHT22;34799;51.440;-2.534;2024-02-16T02:23:15;10.80;99.90
48988;DHT22;34799;51.440;-2.534;2024-02-16T02:28:10;10.70;99.90
48988;DHT22;34799;51.440;-2.534;2024-02-16T02:30:38;10.90;99.90
48988;DHT22;34799;51.440;-2.534;2024-02-16T02:33:05;10.60;99.90
48988;DHT22;34799;51.440;-2.534;2024-02-16T02:35:33;10.90;99.90
48988;DHT22;34799;51.440;-2.534;2024-02-16T02:40:29;10.60;99.90
48988;DHT22;34799;51.440;-2.534;2024-02-16T02:42:56;10.90;99.90
48988;DHT22;34799;51.440;-2.534;2024-02-16T02:45:23;10.70;99.90
48988;DHT22;34799;51.440;-2.534;2024-02-16T02:47:51;11.40;99.90
48988;DHT22;34799;51.440;-2.534;2024-02-16T02:50:18;10.90;99.90
48988;DHT22;34799;51.440;-2.534;2024-02-16T02:52:45;10.80;99.90
48988;DHT22;34799;51.440;-2.534;2024-02-16T02:55:13;10.80;99.90
48988;DHT22;34799;51.440;-2.534;2024-02-16T02:57:41;10.70;99.90
48988;DHT22;34799;51.440;-2.534;2024-02-16T03:00:09;10.70;99.90
48988;DHT22;34799;51.440;-2.534;2024-02-16T03:02:38;10.70;99.90
48988;DHT22;34799;51.440;-2.534;2024-02-16T03:05:06;10.80;99.90
48988;DHT22;34799;51.440;-2.534;2024-02-16T03:07:37;9.60;99.90
48988;DHT22;34799;51.440;-2.534;2024-02-16T03:10:05;10.80;99.90
48988;DHT22;34799;51.440;-2.534;2024-02-16T03:12:32;10.80;99.90
48988;DHT22;34799;51.440;-2.534;2024-02-16T03:15:00;10.80;99.90
48988;DHT22;34799;51.440;-2.534;2024-02-16T03:19:55;10.60;99.90
48988;DHT22;34799;51.440;-2.534;2024-02-16T03:22:22;10.70;99.90
48988;DHT22;34799;51.440;-2.534;2024-02-16T03:27:18;10.70;99.90
48988;DHT22;34799;51.440;-2.534;2024-02-16T03:29:45;10.60;99.90
48988;DHT22;34799;51.440;-2.534;2024-02-16T03:32:13;10.80;99.90
48988;DHT22;34799;51.440;-2.534;2024-02-16T03:34:40;10.50;99.90
48988;DHT22;34799;51.440;-2.534;2024-02-16T03:37:07;10.50;99.90
48988;DHT22;34799;51.440;-2.534;2024-02-16T03:39:36;10.70;99.90
48988;DHT22;34799;51.440;-2.534;2024-02-16T03:42:03;10.70;99.90
48988;DHT22;34799;51.440;-2.534;2024-02-16T03:44:31;10.60;99.90
48988;DHT22;34799;51.440;-2.534;2024-02-16T03:46:58;10.80;99.90
48988;DHT22;34799;51.440;-2.534;2024-02-16T03:49:26;10.80;99.90
48988;DHT22;34799;51.440;-2.534;2024-02-16T03:51:56;10.50;99.90
48988;DHT22;34799;51.440;-2.534;2024-02-16T03:54:23;10.60;99.90
48988;DHT22;34799;51.440;-2.534;2024-02-16T03:56:53;11.30;99.90
48988;DHT22;34799;51.440;-2.534;2024-02-16T03:59:21;10.70;99.90
48988;DHT22;34799;51.440;-2.534;2024-02-16T04:01:51;10.70;99.90
48988;DHT22;34799;51.440;-2.534;2024-02-16T04:04:18;10.20;99.90
48988;DHT22;34799;51.440;-2.534;2024-02-16T04:06:46;10.40;99.90
48988;DHT22;34799;51.440;-2.534;2024-02-16T04:09:13;10.40;99.90
48988;DHT22;34799;51.440;-2.534;2024-02-16T04:14:09;10.60;99.90
48988;DHT22;34799;51.440;-2.534;2024-02-16T04:16:36;10.40;99.90
48988;DHT22;34799;51.440;-2.534;2024-02-16T04:19:04;10.70;99.90
48988;DHT22;34799;51.440;-2.534;2024-02-16T04:21:31;10.70;99.90
48988;DHT22;34799;51.440;-2.534;2024-02-16T04:23:58;10.80;99.90
48988;DHT22;34799;51.440;-2.534;2024-02-16T04:26:26;10.70;99.90
48988;DHT22;34799;51.440;-2.534;2024-02-16T04:28:53;10.40;99.90
48988;DHT22;34799;51.440;-2.534;2024-02-16T04:31:22;10.10;99.90
48988;DHT22;34799;51.440;-2.534;2024-02-16T04:36:16;10.30;99.90
48988;DHT22;34799;51.440;-2.534;2024-02-16T04:38:44;10.50;99.90
48988;DHT22;34799;51.440;-2.534;2024-02-16T04:41:11;10.30;99.90
48988;DHT22;34799;51.440;-2.534;2024-02-16T04:43:39;10.80;99.90
48988;DHT22;34799;51.440;-2.534;2024-02-16T04:46:06;10.50;99.90
48988;DHT22;34799;51.440;-2.534;2024-02-16T04:48:34;10.30;99.90
48988;DHT22;34799;51.440;-2.534;2024-02-16T04:51:02;10.40;99.90
48988;DHT22;34799;51.440;-2.534;2024-02-16T04:53:29;10.50;99.90
48988;DHT22;34799;51.440;-2.534;2024-02-16T05:03:21;10.40;99.90
48988;DHT22;34799;51.440;-2.534;2024-02-16T05:05:49;10.30;99.90
48988;DHT22;34799;51.440;-2.534;2024-02-16T05:08:16;10.10;99.90
48988;DHT22;34799;51.440;-2.534;2024-02-16T05:10:44;10.10;99.90
48988;DHT22;34799;51.440;-2.534;2024-02-16T05:13:11;10.70;99.90
48988;DHT22;34799;51.440;-2.534;2024-02-16T05:15:41;10.20;99.90
48988;DHT22;34799;51.440;-2.534;2024-02-16T05:18:08;10.10;99.90
48988;DHT22;34799;51.440;-2.534;2024-02-16T05:23:06;9.60;99.90
48988;DHT22;34799;51.440;-2.534;2024-02-16T05:25:33;9.80;99.90
48988;DHT22;34799;51.440;-2.534;2024-02-16T05:28:01;9.70;99.90
48988;DHT22;34799;51.440;-2.534;2024-02-16T05:30:30;9.90;99.90
48988;DHT22;34799;51.440;-2.534;2024-02-16T05:32:58;10.10;99.90
48988;DHT22;34799;51.440;-2.534;2024-02-16T05:37:55;10.00;99.90
48988;DHT22;34799;51.440;-2.534;2024-02-16T05:40:23;9.90;99.90
48988;DHT22;34799;51.440;-2.534;2024-02-16T05:42:58;9.70;99.90
48988;DHT22;34799;51.440;-2.534;2024-02-16T05:45:25;10.10;99.90
48988;DHT22;34799;51.440;-2.534;2024-02-16T05:47:57;9.40;99.90
48988;DHT22;34799;51.440;-2.534;2024-02-16T05:52:52;10.00;99.90
48988;DHT22;34799;51.440;-2.534;2024-02-16T05:55:20;9.50;99.90
48988;DHT22;34799;51.440;-2.534;2024-02-16T05:57:47;9.50;99.90
48988;DHT22;34799;51.440;-2.534;2024-02-16T06:00:15;9.70;99.90
48988;DHT22;34799;51.440;-2.534;2024-02-16T06:02:42;9.70;99.90
48988;DHT22;34799;51.440;-2.534;2024-02-16T06:07:38;9.60;99.90
48988;DHT22;34799;51.440;-2.534;2024-02-16T06:10:06;9.60;99.90
48988;DHT22;34799;51.440;-2.534;2024-02-16T06:15:06;9.70;99.90
48988;DHT22;34799;51.440;-2.534;2024-02-16T06:17:33;9.60;99.90
48988;DHT22;34799;51.440;-2.534;2024-02-16T06:20:01;9.70;99.90
48988;DHT22;34799;51.440;-2.534;2024-02-16T06:22:30;9.90;99.90
48988;DHT22;34799;51.440;-2.534;2024-02-16T06:25:01;10.10;99.90
48988;DHT22;34799;51.440;-2.534;2024-02-16T06:29:56;9.90;99.90
48988;DHT22;34799;51.440;-2.534;2024-02-16T06:32:23;9.70;99.90
48988;DHT22;34799;51.440;-2.534;2024-02-16T06:34:51;9.60;99.90
48988;DHT22;34799;51.440;-2.534;2024-02-16T06:37:19;9.60;99.90
48988;DHT22;34799;51.440;-2.534;2024-02-16T06:39:47;10.80;99.90
48988;DHT22;34799;51.440;-2.534;2024-02-16T06:44:42;9.80;99.90
48988;DHT22;34799;51.440;-2.534;2024-02-16T06:47:09;9.80;99.90
48988;DHT22;34799;51.440;-2.534;2024-02-16T06:52:05;10.10;99.90
48988;DHT22;34799;51.440;-2.534;2024-02-16T06:54:32;9.90;99.90
48988;DHT22;34799;51.440;-2.534;2024-02-16T06:56:59;9.90;99.90
48988;DHT22;34799;51.440;-2.534;2024-02-16T06:59:27;9.80;99.90
48988;DHT22;34799;51.440;-2.534;2024-02-16T07:04:23;9.70;99.90
48988;DHT22;34799;51.440;-2.534;2024-02-16T07:06:50;10.00;99.90
48988;DHT22;34799;51.440;-2.534;2024-02-16T07:09:17;9.70;99.90
48988;DHT22;34799;51.440;-2.534;2024-02-16T07:11:45;9.60;99.90
48988;DHT22;34799;51.440;-2.534;2024-02-16T07:14:15;9.80;99.90
48988;DHT22;34799;51.440;-2.534;2024-02-16T07:16:42;9.90;99.90
48988;DHT22;34799;51.440;-2.534;2024-02-16T07:19:10;9.80;99.90
48988;DHT22;34799;51.440;-2.534;2024-02-16T07:24:05;10.00;99.90
48988;DHT22;34799;51.440;-2.534;2024-02-16T07:26:33;9.90;99.90
48988;DHT22;34799;51.440;-2.534;2024-02-16T07:29:00;10.10;99.90
48988;DHT22;34799;51.440;-2.534;2024-02-16T07:31:34;9.90;99.90
48988;DHT22;34799;51.440;-2.534;2024-02-16T07:36:30;10.10;99.90
48988;DHT22;34799;51.440;-2.534;2024-02-16T07:38:59;10.00;99.90
48988;DHT22;34799;51.440;-2.534;2024-02-16T07:43:55;10.20;99.90
48988;DHT22;34799;51.440;-2.534;2024-02-16T07:46:22;10.10;99.90
48988;DHT22;34799;51.440;-2.534;2024-02-16T07:48:49;10.00;99.90
48988;DHT22;34799;51.440;-2.534;2024-02-16T07:51:17;9.70;99.90
48988;DHT22;34799;51.440;-2.534;2024-02-16T07:53:45;10.20;99.90
48988;DHT22;34799;51.440;-2.534;2024-02-16T07:56:14;10.00;99.90
48988;DHT22;34799;51.440;-2.534;2024-02-16T07:58:42;9.90;99.90
48988;DHT22;34799;51.440;-2.534;2024-02-16T08:01:12;9.60;99.90
48988;DHT22;34799;51.440;-2.534;2024-02-16T08:03:42;9.50;99.90
48988;DHT22;34799;51.440;-2.534;2024-02-16T08:06:10;9.80;99.90
48988;DHT22;34799;51.440;-2.534;2024-02-16T08:08:37;9.80;99.90
48988;DHT22;34799;51.440;-2.534;2024-02-16T08:11:04;9.60;99.90
48988;DHT22;34799;51.440;-2.534;2024-02-16T08:13:34;9.80;99.90
48988;DHT22;34799;51.440;-2.534;2024-02-16T08:16:01;10.20;99.90
48988;DHT22;34799;51.440;-2.534;2024-02-16T08:18:33;8.60;99.90
48988;DHT22;34799;51.440;-2.534;2024-02-16T08:21:02;9.60;99.90
48988;DHT22;34799;51.440;-2.534;2024-02-16T08:23:29;9.60;99.90
48988;DHT22;34799;51.440;-2.534;2024-02-16T08:28:26;9.90;99.90
48988;DHT22;34799;51.440;-2.534;2024-02-16T08:30:53;9.90;99.90
48988;DHT22;34799;51.440;-2.534;2024-02-16T08:33:20;10.20;99.90
48988;DHT22;34799;51.440;-2.534;2024-02-16T08:35:48;10.10;99.90
48988;DHT22;34799;51.440;-2.534;2024-02-16T08:38:16;10.10;99.90
48988;DHT22;34799;51.440;-2.534;2024-02-16T08:43:11;9.60;99.90
48988;DHT22;34799;51.440;-2.534;2024-02-16T08:48:08;10.20;99.90
48988;DHT22;34799;51.440;-2.534;2024-02-16T08:50:35;10.10;99.90
48988;DHT22;34799;51.440;-2.534;2024-02-16T08:53:03;9.90;99.90
48988;DHT22;34799;51.440;-2.534;2024-02-16T08:55:31;10.20;99.90
48988;DHT22;34799;51.440;-2.534;2024-02-16T08:58:01;10.20;99.90
48988;DHT22;34799;51.440;-2.534;2024-02-16T09:00:28;10.30;99.90
48988;DHT22;34799;51.440;-2.534;2024-02-16T09:02:57;10.40;99.90
48988;DHT22;34799;51.440;-2.534;2024-02-16T09:07:53;10.20;99.90
48988;DHT22;34799;51.440;-2.534;2024-02-16T09:10:20;10.00;99.90
48988;DHT22;34799;51.440;-2.534;2024-02-16T09:15:18;10.30;99.90
48988;DHT22;34799;51.440;-2.534;2024-02-16T09:17:45;10.30;99.90
48988;DHT22;34799;51.440;-2.534;2024-02-16T09:20:13;10.40;99.90
48988;DHT22;34799;51.440;-2.534;2024-02-16T09:22:41;10.40;99.90
48988;DHT22;34799;51.440;-2.534;2024-02-16T09:25:12;10.50;99.90
48988;DHT22;34799;51.440;-2.534;2024-02-16T09:27:41;10.40;99.90
48988;DHT22;34799;51.440;-2.534;2024-02-16T09:30:12;10.40;99.90
48988;DHT22;34799;51.440;-2.534;2024-02-16T09:32:40;10.40;99.90
48988;DHT22;34799;51.440;-2.534;2024-02-16T09:35:08;10.50;99.90
48988;DHT22;34799;51.440;-2.534;2024-02-16T09:37:35;10.60;99.90
48988;DHT22;34799;51.440;-2.534;2024-02-16T09:40:05;10.40;99.90
48988;DHT22;34799;51.440;-2.534;2024-02-16T09:42:37;10.70;99.90
48988;DHT22;34799;51.440;-2.534;2024-02-16T09:45:08;10.60;99.90
48988;DHT22;34799;51.440;-2.534;2024-02-16T09:50:06;10.70;99.90
48988;DHT22;34799;51.440;-2.534;2024-02-16T09:52:35;10.70;99.90
48988;DHT22;34799;51.440;-2.534;2024-02-16T09:55:03;10.60;99.90
48988;DHT22;34799;51.440;-2.534;2024-02-16T09:57:34;10.60;99.90
48988;DHT22;34799;51.440;-2.534;2024-02-16T10:00:02;11.10;99.90
48988;DHT22;34799;51.440;-2.534;2024-02-16T10:02:45;11.00;99.90
48988;DHT22;34799;51.440;-2.534;2024-02-16T10:05:17;10.70;99.90
48988;DHT22;34799;51.440;-2.534;2024-02-16T10:07:45;11.00;99.90
48988;DHT22;34799;51.440;-2.534;2024-02-16T10:10:22;11.00;99.90
48988;DHT22;34799;51.440;-2.534;2024-02-16T10:13:00;11.00;99.90
48988;DHT22;34799;51.440;-2.534;2024-02-16T10:15:27;10.90;99.90
48988;DHT22;34799;51.440;-2.534;2024-02-16T10:18:01;10.90;99.90
48988;DHT22;34799;51.440;-2.534;2024-02-16T10:20:29;10.90;99.90
48988;DHT22;34799;51.440;-2.534;2024-02-16T10:25:38;10.80;99.90
48988;DHT22;34799;51.440;-2.534;2024-02-16T10:28:09;10.50;99.90
48988;DHT22;34799;51.440;-2.534;2024-02-16T10:30:43;11.50;99.90
48988;DHT22;34799;51.440;-2.534;2024-02-16T10:33:10;14.00;99.90
48988;DHT22;34799;51.440;-2.534;2024-02-16T10:35:41;11.00;99.90
48988;DHT22;34799;51.440;-2.534;2024-02-16T10:38:11;10.80;99.90
48988;DHT22;34799;51.440;-2.534;2024-02-16T10:40:40;10.70;99.90
48988;DHT22;34799;51.440;-2.534;2024-02-16T10:43:10;11.60;99.90
48988;DHT22;34799;51.440;-2.534;2024-02-16T10:45:40;10.90;99.90
48988;DHT22;34799;51.440;-2.534;2024-02-16T10:48:07;11.20;99.90
48988;DHT22;34799;51.440;-2.534;2024-02-16T10:50:36;11.10;99.90
48988;DHT22;34799;51.440;-2.534;2024-02-16T10:53:09;11.00;99.90
48988;DHT22;34799;51.440;-2.534;2024-02-16T10:55:38;11.40;99.90
48988;DHT22;34799;51.440;-2.534;2024-02-16T10:58:08;11.40;99.90
48988;DHT22;34799;51.440;-2.534;2024-02-16T11:00:36;11.50;99.90
48988;DHT22;34799;51.440;-2.534;2024-02-16T11:03:05;11.30;99.90
48988;DHT22;34799;51.440;-2.534;2024-02-16T11:05:41;8.60;99.90
48988;DHT22;34799;51.440;-2.534;2024-02-16T11:08:15;11.60;99.90
48988;DHT22;34799;51.440;-2.534;2024-02-16T11:11:00;11.70;99.90
48988;DHT22;34799;51.440;-2.534;2024-02-16T11:13:35;11.80;99.90
48988;DHT22;34799;51.440;-2.534;2024-02-16T11:16:09;11.50;99.90
48988;DHT22;34799;51.440;-2.534;2024-02-16T11:18:41;12.00;99.90
48988;DHT22;34799;51.440;-2.534;2024-02-16T11:21:17;11.80;99.90
48988;DHT22;34799;51.440;-2.534;2024-02-16T11:23:45;11.70;99.90
48988;DHT22;34799;51.440;-2.534;2024-02-16T11:28:43;11.50;99.90
48988;DHT22;34799;51.440;-2.534;2024-02-16T11:31:10;11.80;99.90
48988;DHT22;34799;51.440;-2.534;2024-02-16T11:33:43;11.80;99.90
48988;DHT22;34799;51.440;-2.534;2024-02-16T11:36:11;11.80;99.90
48988;DHT22;34799;51.440;-2.534;2024-02-16T11:38:39;11.50;99.90
48988;DHT22;34799;51.440;-2.534;2024-02-16T11:41:06;11.50;99.90
48988;DHT22;34799;51.440;-2.534;2024-02-16T11:43:37;11.60;99.90
48988;DHT22;34799;51.440;-2.534;2024-02-16T11:46:14;11.60;99.90
48988;DHT22;34799;51.440;-2.534;2024-02-16T11:48:42;11.60;99.90
48988;DHT22;34799;51.440;-2.534;2024-02-16T11:51:09;11.80;99.90
48988;DHT22;34799;51.440;-2.534;2024-02-16T11:53:37;15.20;99.90
48988;DHT22;34799;51.440;-2.534;2024-02-16T11:56:05;11.70;99.90
48988;DHT22;34799;51.440;-2.534;2024-02-16T11:58:32;11.80;99.90
48988;DHT22;34799;51.440;-2.534;2024-02-16T12:01:00;11.60;99.90
48988;DHT22;34799;51.440;-2.534;2024-02-16T12:03:29;11.60;99.90
48988;DHT22;34799;51.440;-2.534;2024-02-16T12:05:58;11.60;99.90
48988;DHT22;34799;51.440;-2.534;2024-02-16T12:08:33;11.80;99.90
48988;DHT22;34799;51.440;-2.534;2024-02-16T12:11:02;11.80;99.90
48988;DHT22;34799;51.440;-2.534;2024-02-16T12:13:29;11.50;99.90
48988;DHT22;34799;51.440;-2.534;2024-02-16T12:15:57;11.60;99.90
48988;DHT22;34799;51.440;-2.534;2024-02-16T12:18:26;11.60;99.90
48988;DHT22;34799;51.440;-2.534;2024-02-16T12:21:01;11.60;99.90
48988;DHT22;34799;51.440;-2.534;2024-02-16T12:23:29;11.60;99.90
48988;DHT22;34799;51.440;-2.534;2024-02-16T12:26:01;11.60;99.90
48988;DHT22;34799;51.440;-2.534;2024-02-16T12:28:30;11.90;99.90
48988;DHT22;34799;51.440;-2.534;2024-02-16T12:31:00;11.70;99.90
48988;DHT22;34799;51.440;-2.534;2024-02-16T12:33:29;11.90;99.90
48988;DHT22;34799;51.440;-2.534;2024-02-16T12:35:58;11.60;99.90
48988;DHT22;34799;51.440;-2.534;2024-02-16T12:38:25;11.70;99.90
48988;DHT22;34799;51.440;-2.534;2024-02-16T12:40:52;11.70;99.90
48988;DHT22;34799;51.440;-2.534;2024-02-16T12:43:19;11.80;99.90
48988;DHT22;34799;51.440;-2.534;2024-02-16T12:45:47;11.80;99.90
48988;DHT22;34799;51.440;-2.534;2024-02-16T12:48:15;11.50;99.90
48988;DHT22;34799;51.440;-2.534;2024-02-16T12:50:43;11.60;99.90
48988;DHT22;34799;51.440;-2.534;2024-02-16T12:53:10;11.60;99.90
48988;DHT22;34799;51.440;-2.534;2024-02-16T12:55:37;11.70;99.90
48988;DHT22;34799;51.440;-2.534;2024-02-16T12:58:05;11.50;99.90
48988;DHT22;34799;51.440;-2.534;2024-02-16T13:00:33;11.80;99.90
48988;DHT22;34799;51.440;-2.534;2024-02-16T13:03:00;11.90;99.90
48988;DHT22;34799;51.440;-2.534;2024-02-16T13:05:27;12.00;99.90
48988;DHT22;34799;51.440;-2.534;2024-02-16T13:07:54;12.10;99.90
48988;DHT22;34799;51.440;-2.534;2024-02-16T13:10:22;11.90;99.90
48988;DHT22;34799;51.440;-2.534;2024-02-16T13:12:49;12.20;99.90
48988;DHT22;34799;51.440;-2.534;2024-02-16T13:15:16;12.10;99.90
48988;DHT22;34799;51.440;-2.534;2024-02-16T13:17:45;12.00;99.90
48988;DHT22;34799;51.440;-2.534;2024-02-16T13:20:12;11.80;99.90
48988;DHT22;34799;51.440;-2.534;2024-02-16T13:25:08;11.80;99.90
48988;DHT22;34799;51.440;-2.534;2024-02-16T13:27:35;11.80;99.90
48988;DHT22;34799;51.440;-2.534;2024-02-16T13:30:03;12.20;99.90
48988;DHT22;34799;51.440;-2.534;2024-02-16T13:32:34;12.10;99.90
48988;DHT22;34799;51.440;-2.534;2024-02-16T13:35:03;12.00;99.90
48988;DHT22;34799;51.440;-2.534;2024-02-16T13:37:31;11.80;99.90
48988;DHT22;34799;51.440;-2.534;2024-02-16T13:39:58;11.90;99.90
48988;DHT22;34799;51.440;-2.534;2024-02-16T13:42:26;11.90;99.90
48988;DHT22;34799;51.440;-2.534;2024-02-16T13:47:22;11.90;99.90
48988;DHT22;34799;51.440;-2.534;2024-02-16T13:52:19;12.10;99.90
48988;DHT22;34799;51.440;-2.534;2024-02-16T13:54:46;12.00;99.90
48988;DHT22;34799;51.440;-2.534;2024-02-16T13:59:42;11.90;99.90
48988;DHT22;34799;51.440;-2.534;2024-02-16T14:02:12;12.00;99.90
48988;DHT22;34799;51.440;-2.534;2024-02-16T14:04:40;12.30;99.90
48988;DHT22;34799;51.440;-2.534;2024-02-16T14:07:08;11.70;99.90
48988;DHT22;34799;51.440;-2.534;2024-02-16T14:12:05;11.90;99.90
48988;DHT22;34799;51.440;-2.534;2024-02-16T14:14:32;12.10;99.90
48988;DHT22;34799;51.440;-2.534;2024-02-16T14:19:31;12.00;99.90
48988;DHT22;34799;51.440;-2.534;2024-02-16T14:21:59;11.80;99.90
48988;DHT22;34799;51.440;-2.534;2024-02-16T14:24:26;11.90;99.90
48988;DHT22;34799;51.440;-2.534;2024-02-16T14:26:53;11.90;99.90
48988;DHT22;34799;51.440;-2.534;2024-02-16T14:29:21;12.10;99.90
48988;DHT22;34799;51.440;-2.534;2024-02-16T14:31:48;11.80;99.90
48988;DHT22;34799;51.440;-2.534;2024-02-16T14:34:17;11.60;99.90
48988;DHT22;34799;51.440;-2.534;2024-02-16T14:39:11;11.80;99.90
48988;DHT22;34799;51.440;-2.534;2024-02-16T14:41:39;11.90;99.90
48988;DHT22;34799;51.440;-2.534;2024-02-16T14:44:06;12.20;99.90
48988;DHT22;34799;51.440;-2.534;2024-02-16T14:46:35;12.00;99.90
48988;DHT22;34799;51.440;-2.534;2024-02-16T14:51:29;11.70;99.90
48988;DHT22;34799;51.440;-2.534;2024-02-16T14:53:57;11.80;99.90
48988;DHT22;34799;51.440;-2.534;2024-02-16T14:56:26;13.90;99.90
48988;DHT22;34799;51.440;-2.534;2024-02-16T14:58:54;11.70;99.90
48988;DHT22;34799;51.440;-2.534;2024-02-16T15:01:22;11.70;99.90
48988;DHT22;34799;51.440;-2.534;2024-02-16T15:03:49;11.90;99.90
48988;DHT22;34799;51.440;-2.534;2024-02-16T15:06:16;11.40;99.90
48988;DHT22;34799;51.440;-2.534;2024-02-16T15:13:41;11.80;99.90
48988;DHT22;34799;51.440;-2.534;2024-02-16T15:16:10;11.70;99.90
48988;DHT22;34799;51.440;-2.534;2024-02-16T15:18:37;11.60;99.90
48988;DHT22;34799;51.440;-2.534;2024-02-16T15:21:04;11.60;99.90
48988;DHT22;34799;51.440;-2.534;2024-02-16T15:23:32;11.80;99.90
48988;DHT22;34799;51.440;-2.534;2024-02-16T15:26:00;11.90;99.90
48988;DHT22;34799;51.440;-2.534;2024-02-16T15:28:29;11.80;99.90
48988;DHT22;34799;51.440;-2.534;2024-02-16T15:33:26;11.70;99.90
48988;DHT22;34799;51.440;-2.534;2024-02-16T15:35:53;11.90;99.90
48988;DHT22;34799;51.440;-2.534;2024-02-16T15:38:20;11.90;99.90
48988;DHT22;34799;51.440;-2.534;2024-02-16T15:43:15;11.90;99.90
48988;DHT22;34799;51.440;-2.534;2024-02-16T15:45:44;11.60;99.90
48988;DHT22;34799;51.440;-2.534;2024-02-16T15:48:14;11.90;99.90
48988;DHT22;34799;51.440;-2.534;2024-02-16T15:50:43;11.90;99.90
48988;DHT22;34799;51.440;-2.534;2024-02-16T15:53:10;12.30;99.90
48988;DHT22;34799;51.440;-2.534;2024-02-16T15:55:39;11.60;99.90
48988;DHT22;34799;51.440;-2.534;2024-02-16T15:58:09;11.50;99.90
48988;DHT22;34799;51.440;-2.534;2024-02-16T16:00:36;10.70;99.90
48988;DHT22;34799;51.440;-2.534;2024-02-16T16:03:03;11.30;99.90
48988;DHT22;34799;51.440;-2.534;2024-02-16T16:05:32;11.30;99.90
48988;DHT22;34799;51.440;-2.534;2024-02-16T16:08:02;11.40;99.90
48988;DHT22;34799;51.440;-2.534;2024-02-16T16:12:57;11.60;99.90
48988;DHT22;34799;51.440;-2.534;2024-02-16T16:15:26;11.40;99.90
48988;DHT22;34799;51.440;-2.534;2024-02-16T16:17:53;11.30;99.90
48988;DHT22;34799;51.440;-2.534;2024-02-16T16:20:20;11.50;99.90
48988;DHT22;34799;51.440;-2.534;2024-02-16T16:22:48;11.10;99.90
48988;DHT22;34799;51.440;-2.534;2024-02-16T16:25:15;11.40;99.90
48988;DHT22;34799;51.440;-2.534;2024-02-16T16:27:46;11.20;99.90
48988;DHT22;34799;51.440;-2.534;2024-02-16T16:30:16;11.20;99.90
48988;DHT22;34799;51.440;-2.534;2024-02-16T16:32:43;11.10;99.90
48988;DHT22;34799;51.440;-2.534;2024-02-16T16:35:11;11.20;99.90
48988;DHT22;34799;51.440;-2.534;2024-02-16T16:37:39;11.50;99.90
48988;DHT22;34799;51.440;-2.534;2024-02-16T16:40:06;11.70;99.90
48988;DHT22;34799;51.440;-2.534;2024-02-16T16:42:35;11.50;99.90
48988;DHT22;34799;51.440;-2.534;2024-02-16T16:45:04;11.50;99.90
48988;DHT22;34799;51.440;-2.534;2024-02-16T16:47:31;11.40;99.90
48988;DHT22;34799;51.440;-2.534;2024-02-16T16:49:58;11.20;99.90
48988;DHT22;34799;51.440;-2.534;2024-02-16T16:52:26;11.00;99.90
48988;DHT22;34799;51.440;-2.534;2024-02-16T16:54:53;11.30;99.90
48988;DHT22;34799;51.440;-2.534;2024-02-16T16:57:21;11.80;99.90
48988;DHT22;34799;51.440;-2.534;2024-02-16T16:59:48;11.10;99.90
48988;DHT22;34799;51.440;-2.534;2024-02-16T17:02:15;11.30;99.90
48988;DHT22;34799;51.440;-2.534;2024-02-16T17:04:43;11.30;99.90
48988;DHT22;34799;51.440;-2.534;2024-02-16T17:07:11;11.30;99.90
48988;DHT22;34799;51.440;-2.534;2024-02-16T17:09:39;11.40;99.90
48988;DHT22;34799;51.440;-2.534;2024-02-16T17:12:06;11.10;99.90
48988;DHT22;34799;51.440;-2.534;2024-02-16T17:14:33;11.00;99.90
48988;DHT22;34799;51.440;-2.534;2024-02-16T17:17:01;11.20;99.90
48988;DHT22;34799;51.440;-2.534;2024-02-16T17:21:57;11.20;99.90
48988;DHT22;34799;51.440;-2.534;2024-02-16T17:24:24;11.90;99.90
48988;DHT22;34799;51.440;-2.534;2024-02-16T17:26:53;11.20;99.90
48988;DHT22;34799;51.440;-2.534;2024-02-16T17:29:20;11.20;99.90
48988;DHT22;34799;51.440;-2.534;2024-02-16T17:31:47;11.40;99.90
48988;DHT22;34799;51.440;-2.534;2024-02-16T17:34:15;11.10;99.90